Time;durP1;ratioP1;P1;durP2;ratioP2;P2;SDS_P1;SDS_P2;PMS_P1;PMS_P2;Temp;Humidity;BMP_temperature;BMP_pressure;BME280_temperature;BME280_humidity;BME280_pressure;Samples;Min_cycle;Max_cycle;Signal;HPM_P1;HPM_P2
2022/06/25 00:02:14;;;;;;;3.47;1.87;;;;;;;15.67;100.00;97835.41;5035940;28;20300;-68
2022/06/25 00:07:25;;;;;;;4.97;1.80;;;;;;;15.55;100.00;97836.63;5035694;28;20667;-68
2022/06/25 00:09:51;;;;;;;1.90;1.80;;;;;;;15.63;100.00;97828.13;5035722;28;20222;-68
2022/06/25 00:12:32;;;;;;;2.67;2.33;;;;;;;15.59;100.00;97835.88;5035727;28;20212;-68
2022/06/25 00:14:59;;;;;;;1.90;1.80;;;;;;;15.54;100.00;97837.69;5035785;28;20222;-68
2022/06/25 00:17:26;;;;;;;1.77;1.67;;;;;;;15.65;100.00;97845.56;5035675;28;20213;-68
2022/06/25 00:19:52;;;;;;;3.43;1.60;;;;;;;15.62;100.00;97851.44;5035581;28;20232;-68
2022/06/25 00:22:18;;;;;;;3.30;1.67;;;;;;;15.58;100.00;97839.63;5035034;28;20202;-69
2022/06/25 00:24:45;;;;;;;4.23;1.80;;;;;;;15.59;100.00;97846.59;5035410;28;20293;-68
2022/06/25 00:27:11;;;;;;;2.17;2.00;;;;;;;15.58;100.00;97839.63;5035383;28;20336;-68
2022/06/25 00:29:38;;;;;;;1.93;1.77;;;;;;;15.60;100.00;97845.53;5035048;28;20705;-68
2022/06/25 00:32:04;;;;;;;3.20;1.87;;;;;;;15.57;100.00;97846.03;5035367;28;20206;-68
2022/06/25 00:34:31;;;;;;;3.30;1.90;;;;;;;15.61;100.00;97852.47;5035325;28;20202;-68
2022/06/25 00:36:57;;;;;;;5.27;1.70;;;;;;;15.52;100.00;97848.66;5035253;28;20285;-69
2022/06/25 00:39:24;;;;;;;3.40;1.80;;;;;;;15.65;100.00;97850.13;5035194;28;20658;-68
2022/06/25 00:41:50;;;;;;;2.20;2.00;;;;;;;15.58;100.00;97844.97;5035206;28;20292;-68
2022/06/25 00:44:17;;;;;;;2.90;2.03;;;;;;;15.53;100.00;97847.63;5035118;28;20236;-68
2022/06/25 00:46:47;;;;;;;2.83;1.70;;;;;;;15.52;100.00;97843.28;5035028;28;20230;-69
2022/06/25 00:49:13;;;;;;;2.37;2.00;;;;;;;15.53;100.00;97844.94;5034585;28;20859;-68
2022/06/25 00:51:41;;;;;;;1.93;1.50;;;;;;;15.60;100.00;97844.72;5035012;28;20292;-68
2022/06/25 00:54:10;;;;;;;1.77;1.67;;;;;;;15.59;100.00;97841.22;5034902;28;20210;-68
2022/06/25 00:56:38;;;;;;;2.00;1.80;;;;;;;15.63;100.00;97839.66;5034892;28;20208;-68
2022/06/25 00:59:06;;;;;;;2.63;1.70;;;;;;;15.63;100.00;97849.56;5034521;28;20734;-68
2022/06/25 01:01:34;;;;;;;3.30;1.90;;;;;;;15.58;100.00;97852.19;5034879;28;20285;-69
2022/06/25 01:04:01;;;;;;;2.73;1.70;;;;;;;15.51;100.00;97847.03;5034773;28;20216;-69
2022/06/25 01:06:28;;;;;;;3.63;1.70;;;;;;;15.51;100.00;97847.03;5034565;28;20316;-68
2022/06/25 01:08:57;;;;;;;2.63;1.80;;;;;;;15.47;100.00;97843.25;5034648;28;20312;-68
2022/06/25 01:11:23;;;;;;;4.07;1.80;;;;;;;15.38;100.00;97855.50;5034659;28;20216;-68
2022/06/25 01:13:50;;;;;;;2.07;1.87;;;;;;;15.33;100.00;97851.97;5034296;28;20673;-69
2022/06/25 01:16:16;;;;;;;3.17;1.63;;;;;;;15.35;100.00;97853.34;5034518;28;20224;-68
2022/06/25 01:18:42;;;;;;;3.80;1.70;;;;;;;15.37;100.00;97856.56;5034159;28;20771;-68
2022/06/25 01:21:10;;;;;;;2.97;1.80;;;;;;;15.39;100.00;97853.66;5034301;28;20208;-68
2022/06/25 01:23:36;;;;;;;2.00;1.60;;;;;;;15.41;100.00;97854.19;5034093;28;20245;-68
2022/06/25 01:26:03;;;;;;;2.13;1.80;;;;;;;15.36;100.00;97841.56;5033988;28;20696;-68
2022/06/25 01:28:29;;;;;;;7.40;1.80;;;;;;;15.35;100.00;97850.66;5033919;28;20222;-68
2022/06/25 01:30:56;;;;;;;2.17;1.73;;;;;;;15.33;100.00;97852.75;5034297;28;20293;-68
2022/06/25 01:33:22;;;;;;;2.63;1.67;;;;;;;15.36;100.00;97852.28;5034043;28;20308;-68
2022/06/25 01:35:48;;;;;;;4.40;1.90;;;;;;;15.32;100.00;97858.34;5033673;28;20222;-68
2022/06/25 01:38:15;;;;;;;4.70;1.80;;;;;;;15.31;100.00;97856.75;5033996;28;20768;-68
2022/06/25 01:40:41;;;;;;;3.40;1.40;;;;;;;15.36;100.00;97854.13;5034117;28;20293;-69
2022/06/25 01:43:08;;;;;;;2.60;1.70;;;;;;;15.36;100.00;97860.31;5034099;28;20293;-68
2022/06/25 01:45:36;;;;;;;8.20;1.60;;;;;;;15.39;100.00;97857.16;5033943;28;20617;-68
2022/06/25 01:48:08;;;;;;;2.33;2.13;;;;;;;15.38;100.00;97858.19;5033859;28;20280;-68
2022/06/25 01:50:36;;;;;;;4.30;1.87;;;;;;;15.31;100.00;97854.88;5033610;28;20233;-68
2022/06/25 01:53:02;;;;;;;1.70;1.53;;;;;;;15.34;100.00;97856.28;5033616;28;20296;-68
2022/06/25 01:55:29;;;;;;;1.70;1.60;;;;;;;15.28;100.00;97851.91;5033854;28;20727;-68
2022/06/25 01:57:55;;;;;;;2.67;1.67;;;;;;;15.33;100.00;97855.44;5033815;28;20244;-68
2022/06/25 02:00:25;;;;;;;1.97;1.80;;;;;;;15.31;100.00;97857.56;5033792;28;20205;-68
2022/06/25 02:02:54;;;;;;;2.60;1.70;;;;;;;15.32;100.00;97861.84;5033790;28;20302;-68
2022/06/25 02:05:56;;;;;;;3.63;1.70;;;;;;;15.24;100.00;97862.31;5033703;28;20206;-68
2022/06/25 02:08:11;;;;;;;2.50;1.57;;;;;;;15.34;100.00;97867.00;5033186;28;20226;-68
2022/06/25 02:10:37;;;;;;;3.07;1.80;;;;;;;15.21;100.00;97862.81;5033678;28;20213;-68
2022/06/25 02:13:04;;;;;;;3.53;1.70;;;;;;;15.29;100.00;97861.56;5033672;28;20306;-68
2022/06/25 02:15:31;;;;;;;2.63;1.60;;;;;;;15.31;100.00;97857.56;5033819;28;20293;-69
2022/06/25 02:17:57;;;;;;;1.43;1.33;;;;;;;15.32;100.00;97869.06;5033554;28;20248;-68
2022/06/25 02:20:23;;;;;;;3.53;1.70;;;;;;;15.21;100.00;97868.19;5033568;28;20208;-68
2022/06/25 02:22:50;;;;;;;1.47;1.37;;;;;;;15.21;100.00;97870.84;5033264;28;20212;-68
2022/06/25 02:25:17;;;;;;;1.80;1.43;;;;;;;15.22;100.00;97877.00;5033260;28;20687;-68
2022/06/25 02:27:43;;;;;;;2.10;1.50;;;;;;;15.21;100.00;97872.72;5033356;28;20226;-68
2022/06/25 02:30:10;;;;;;;4.03;1.93;;;;;;;15.12;100.00;97868.88;5033189;28;20296;-68
2022/06/25 02:32:37;;;;;;;3.73;1.77;;;;;;;15.21;100.00;97873.53;5033069;28;20578;-68
2022/06/25 02:35:04;;;;;;;3.47;1.70;;;;;;;15.20;100.00;97873.78;5033393;28;20293;-68
2022/06/25 02:37:30;;;;;;;1.47;1.37;;;;;;;15.18;100.00;97887.41;5033364;28;20289;-68
2022/06/25 02:39:56;;;;;;;2.40;1.57;;;;;;;15.25;100.00;97876.50;5033028;28;20304;-68
2022/06/25 02:42:23;;;;;;;3.97;1.87;;;;;;;15.23;100.00;97875.94;5033391;28;20296;-68
2022/06/25 02:44:49;;;;;;;1.50;1.40;;;;;;;15.31;100.00;97884.34;5033099;28;20206;-68
2022/06/25 02:47:16;;;;;;;2.00;1.50;;;;;;;15.26;100.00;97881.63;5037092;28;20592;-68
2022/06/25 02:49:42;;;;;;;2.10;1.37;;;;;;;15.20;100.00;97879.94;5037089;28;20256;-68
2022/06/25 02:52:09;;;;;;;2.00;1.60;;;;;;;15.20;100.00;97874.56;5037322;28;20216;-68
2022/06/25 02:54:35;;;;;;;2.07;1.57;;;;;;;15.20;100.00;97876.47;5037287;28;20305;-68
2022/06/25 02:59:45;;;;;;;2.57;1.50;;;;;;;15.19;100.00;97880.22;5036913;28;20216;-68
2022/06/25 03:02:11;;;;;;;1.43;1.33;;;;;;;15.15;100.00;97885.22;5037004;28;20209;-68
2022/06/25 03:04:38;;;;;;;4.70;1.60;;;;;;;15.11;100.00;97878.75;5037041;28;20205;-68
2022/06/25 03:07:04;;;;;;;2.70;1.53;;;;;;;15.11;100.00;97884.13;5036577;28;20717;-68
2022/06/25 03:09:31;;;;;;;2.67;1.53;;;;;;;15.11;100.00;97878.75;5037415;28;20316;-69
2022/06/25 03:11:57;;;;;;;3.37;1.40;;;;;;;15.05;100.00;97879.78;5036545;28;20739;-70
2022/06/25 03:14:24;;;;;;;1.40;1.30;;;;;;;15.03;100.00;97879.22;5036617;28;20209;-70
2022/06/25 03:16:50;;;;;;;1.60;1.50;;;;;;;15.02;100.00;97876.81;5036779;28;20208;-69
2022/06/25 03:19:16;;;;;;;1.43;1.30;;;;;;;15.04;100.00;97874.66;5036661;28;20229;-69
2022/06/25 03:21:44;;;;;;;3.20;1.70;;;;;;;14.91;100.00;97873.19;5036593;28;20297;-69
2022/06/25 03:24:10;;;;;;;3.27;1.57;;;;;;;15.00;100.00;97878.91;5036622;28;20205;-69
2022/06/25 03:26:36;;;;;;;1.40;1.30;;;;;;;14.96;100.00;97875.09;5036971;28;20308;-69
2022/06/25 03:29:03;;;;;;;2.80;1.50;;;;;;;14.93;100.00;97879.09;5036235;28;20704;-69
2022/06/25 03:31:30;;;;;;;1.57;1.47;;;;;;;14.97;100.00;97872.19;5036605;28;20213;-69
2022/06/25 03:33:57;;;;;;;2.73;1.47;;;;;;;15.02;100.00;97866.09;5036362;28;20206;-69
2022/06/25 03:36:23;;;;;;;1.93;1.40;;;;;;;14.96;100.00;97877.78;5036117;28;20691;-68
2022/06/25 03:38:49;;;;;;;1.40;1.30;;;;;;;14.90;100.00;97871.59;5036250;28;20226;-69
2022/06/25 03:41:35;;;;;;;2.10;1.43;;;;;;;14.90;100.00;97865.41;5036293;28;20208;-69
2022/06/25 03:44:07;;;;;;;2.10;1.50;;;;;;;14.79;100.00;97863.69;5036312;28;20190;-69
2022/06/25 03:46:35;;;;;;;3.73;1.50;;;;;;;14.81;100.00;97873.09;5035741;28;20777;-69
2022/06/25 03:49:03;;;;;;;1.70;1.60;;;;;;;14.81;100.00;97872.25;5035996;28;20233;-68
2022/06/25 03:51:30;;;;;;;1.80;1.60;;;;;;;14.84;100.00;97871.78;5036102;28;20292;-69
2022/06/25 03:53:57;;;;;;;5.13;1.60;;;;;;;14.84;100.00;97874.44;5036082;28;20233;-69
2022/06/25 03:56:23;;;;;;;1.97;1.57;;;;;;;14.88;100.00;97879.03;5036421;28;20296;-69
2022/06/25 03:58:51;;;;;;;2.07;1.60;;;;;;;14.89;100.00;97883.34;5035138;28;20800;-69
2022/06/25 04:01:17;;;;;;;3.30;1.70;;;;;;;14.88;100.00;97872.91;5035905;28;20212;-69
2022/06/25 04:03:44;;;;;;;3.60;1.80;;;;;;;14.89;100.00;97877.19;5035918;28;20206;-69
2022/06/25 04:06:12;;;;;;;3.33;1.80;;;;;;;14.87;100.00;97882.78;5035677;28;20297;-69
2022/06/25 04:08:38;;;;;;;1.73;1.63;;;;;;;14.94;100.00;97893.31;5035674;28;20315;-69
2022/06/25 04:11:05;;;;;;;2.30;1.60;;;;;;;14.89;100.00;97890.56;5035532;28;20212;-69
2022/06/25 04:13:31;;;;;;;4.23;1.60;;;;;;;14.97;100.00;97895.50;5035613;28;20317;-68
2022/06/25 04:15:58;;;;;;;3.20;1.50;;;;;;;15.08;100.00;97897.22;5035584;28;20373;-69
2022/06/25 04:18:24;;;;;;;1.67;1.40;;;;;;;15.19;100.00;97891.72;5035686;28;20308;-69
2022/06/25 04:20:50;;;;;;;2.03;1.57;;;;;;;15.22;100.00;97891.22;5035576;28;20384;-69
2022/06/25 04:23:17;;;;;;;3.60;1.70;;;;;;;15.26;100.00;97904.91;5036266;28;20205;-68
2022/06/25 04:25:43;;;;;;;2.33;1.90;;;;;;;15.30;100.00;97914.06;5035493;28;20304;-69
2022/06/25 04:31:02;;;;;;;2.93;1.90;;;;;;;15.27;100.00;97909.19;5011521;28;20201;-69
2022/06/25 04:33:28;;;;;;;3.27;1.57;;;;;;;15.36;100.00;97919.25;5035398;28;20292;-69
2022/06/25 04:35:55;;;;;;;3.00;1.37;;;;;;;15.40;100.00;97919.53;5035055;28;20702;-69
2022/06/25 04:38:21;;;;;;;2.60;1.60;;;;;;;15.47;100.00;97918.28;5034837;28;20316;-69
2022/06/25 04:40:48;;;;;;;4.43;1.70;;;;;;;15.48;100.00;97921.78;5034932;28;20683;-68
2022/06/25 04:43:14;;;;;;;3.30;1.50;;;;;;;15.56;100.00;97924.78;5034894;28;20751;-69
2022/06/25 04:45:41;;;;;;;1.97;1.40;;;;;;;15.55;100.00;97928.53;5035037;28;20206;-69
2022/06/25 04:48:07;;;;;;;3.60;1.70;;;;;;;15.64;100.00;97931.56;5034873;28;20234;-69
2022/06/25 04:50:34;;;;;;;3.73;1.70;;;;;;;15.69;100.00;97937.00;5034935;28;20210;-69
2022/06/25 04:53:00;;;;;;;1.50;1.40;;;;;;;15.71;100.00;97934.84;5034970;28;20209;-69
2022/06/25 04:55:27;;;;;;;3.90;1.70;;;;;;;15.70;100.00;97936.72;5034757;28;20210;-69
2022/06/25 04:57:54;;;;;;;3.00;1.37;;;;;;;15.80;100.00;97949.41;5034761;28;20209;-69
2022/06/25 05:00:21;;;;;;;1.97;1.20;;;;;;;15.94;100.00;97951.44;5034725;28;20286;-69
2022/06/25 05:02:47;;;;;;;1.93;1.40;;;;;;;16.04;100.00;97954.19;5035197;28;20297;-69
2022/06/25 05:05:13;;;;;;;4.37;1.40;;;;;;;16.09;100.00;97940.81;5034612;28;20225;-69
2022/06/25 05:07:40;;;;;;;1.63;1.40;;;;;;;16.37;100.00;97948.53;5034375;28;20232;-69
2022/06/25 05:10:06;;;;;;;2.57;1.37;;;;;;;16.68;100.00;97950.38;5034203;28;20624;-69
2022/06/25 05:15:17;;;;;;;2.20;1.20;;;;;;;17.28;100.00;97945.28;5034639;28;20244;-69
2022/06/25 05:17:43;;;;;;;3.83;1.00;;;;;;;17.78;100.00;97948.09;5034303;28;20661;-69
2022/06/25 05:20:10;;;;;;;2.73;1.30;;;;;;;18.22;100.00;97951.88;5034487;28;20205;-69
2022/06/25 05:22:37;;;;;;;4.63;1.57;;;;;;;18.53;93.96;97971.53;5034232;28;20245;-69
2022/06/25 05:25:04;;;;;;;3.83;1.10;;;;;;;18.74;94.50;97968.53;5034246;28;20210;-69
2022/06/25 05:27:31;;;;;;;3.97;1.00;;;;;;;18.80;86.16;97975.53;5034243;28;20229;-69
2022/06/25 05:29:57;;;;;;;1.30;1.20;;;;;;;18.73;90.29;97977.69;5033914;28;20230;-69
2022/06/25 05:32:24;;;;;;;2.60;1.23;;;;;;;18.33;91.76;97972.34;5034263;28;20202;-69
2022/06/25 05:34:50;;;;;;;1.23;1.10;;;;;;;18.09;98.02;97967.78;5034123;28;20285;-69
2022/06/25 05:37:17;;;;;;;2.33;1.40;;;;;;;17.99;100.00;97955.13;5033769;28;20201;-69
2022/06/25 05:39:43;;;;;;;2.00;1.20;;;;;;;17.84;100.00;97954.28;5033485;28;20314;-69
2022/06/25 05:42:10;;;;;;;2.77;1.37;;;;;;;17.78;100.00;97960.75;5033544;28;20210;-69
2022/06/25 05:44:37;;;;;;;4.87;1.30;;;;;;;17.73;100.00;97961.53;5034681;28;20244;-69
2022/06/25 05:47:03;;;;;;;3.80;1.40;;;;;;;17.80;100.00;97959.41;5033766;28;20226;-69
2022/06/25 05:49:30;;;;;;;2.23;1.30;;;;;;;17.81;100.00;97966.41;5033338;28;20244;-69
2022/06/25 05:51:56;;;;;;;1.83;1.20;;;;;;;17.86;100.00;97966.41;5033425;28;20213;-69
2022/06/25 05:54:22;;;;;;;2.00;0.90;;;;;;;17.77;96.63;97969.88;5034230;28;20288;-68
2022/06/25 05:56:49;;;;;;;2.40;1.30;;;;;;;17.82;100.00;97970.69;5033765;28;20202;-69
2022/06/25 05:59:16;;;;;;;1.77;1.10;;;;;;;17.88;99.95;97972.34;5033768;28;20317;-69
2022/06/25 06:01:42;;;;;;;1.50;1.30;;;;;;;17.94;100.00;97971.25;5033304;28;20748;-69
2022/06/25 06:04:09;;;;;;;2.93;1.30;;;;;;;17.87;97.40;97970.69;5033369;28;20206;-69
2022/06/25 06:06:35;;;;;;;3.13;1.67;;;;;;;17.87;93.26;97976.09;5033290;28;20217;-69
2022/06/25 06:09:02;;;;;;;1.63;0.97;;;;;;;18.04;93.85;97984.72;5033543;28;20365;-69
2022/06/25 06:11:28;;;;;;;2.03;0.90;;;;;;;18.10;98.27;97982.84;5033322;28;20235;-69
2022/06/25 06:13:54;;;;;;;1.60;1.20;;;;;;;18.22;90.87;97983.38;5033590;28;20202;-69
2022/06/25 06:16:21;;;;;;;3.80;1.50;;;;;;;18.24;92.97;97992.78;5033147;28;20297;-69
2022/06/25 06:18:47;;;;;;;3.10;1.50;;;;;;;18.17;95.23;97994.94;5033371;28;20222;-69
2022/06/25 06:21:14;;;;;;;1.57;1.47;;;;;;;18.14;96.98;97990.09;5032663;28;20673;-68
2022/06/25 06:23:40;;;;;;;2.30;1.67;;;;;;;18.18;95.28;97985.78;5033418;28;20296;-69
2022/06/25 06:26:06;;;;;;;4.37;1.50;;;;;;;18.30;95.08;97991.72;5033293;28;20216;-69
2022/06/25 06:28:33;;;;;;;4.80;1.20;;;;;;;18.48;94.01;97993.09;5033205;28;20229;-69
2022/06/25 06:30:59;;;;;;;4.23;1.53;;;;;;;18.43;91.06;97996.59;5033141;28;20750;-69
2022/06/25 06:33:26;;;;;;;2.60;1.53;;;;;;;18.59;94.29;97992.81;5033381;28;20205;-69
2022/06/25 06:35:52;;;;;;;3.10;1.40;;;;;;;18.51;90.94;97993.34;5033399;28;20301;-69
2022/06/25 06:38:18;;;;;;;2.40;1.30;;;;;;;18.58;90.88;97996.59;5032983;28;20734;-69
2022/06/25 06:40:45;;;;;;;1.87;1.20;;;;;;;18.58;90.49;98007.34;5033293;28;20296;-69
2022/06/25 06:43:11;;;;;;;4.67;1.43;;;;;;;18.61;90.92;97993.34;5032912;28;20570;-69
2022/06/25 06:45:37;;;;;;;2.23;1.20;;;;;;;18.63;92.44;98001.13;5033003;28;20210;-69
2022/06/25 06:48:04;;;;;;;1.77;1.47;;;;;;;18.75;90.71;97999.78;5032639;28;20234;-69
2022/06/25 06:50:31;;;;;;;3.37;1.40;;;;;;;18.79;90.62;98003.56;5033050;28;20700;-69
2022/06/25 06:52:57;;;;;;;2.30;1.50;;;;;;;18.91;92.32;97998.66;5032749;28;20297;-69
2022/06/25 06:55:23;;;;;;;3.03;1.20;;;;;;;18.90;87.24;97994.38;5032993;28;20210;-69
2022/06/25 06:57:50;;;;;;;2.83;1.53;;;;;;;18.90;92.01;98002.44;5033033;28;20209;-69
2022/06/25 07:00:17;;;;;;;2.47;1.30;;;;;;;18.96;88.31;97995.97;5033011;28;20210;-69
2022/06/25 07:02:44;;;;;;;1.40;1.30;;;;;;;19.09;85.58;97987.31;5032724;28;20202;-69
2022/06/25 07:05:10;;;;;;;1.33;1.17;;;;;;;19.37;84.77;97991.28;5032995;28;20209;-69
2022/06/25 07:07:37;;;;;;;2.10;1.37;;;;;;;19.39;86.59;97992.63;5032526;28;20226;-69
2022/06/25 07:10:04;;;;;;;2.50;1.60;;;;;;;19.42;81.52;97999.34;5032760;28;20305;-69
2022/06/25 07:12:31;;;;;;;1.40;1.30;;;;;;;19.46;81.66;98001.19;5032857;28;20297;-69
2022/06/25 07:14:58;;;;;;;1.10;1.10;;;;;;;19.54;85.88;98000.63;5032632;28;20234;-69
2022/06/25 07:17:24;;;;;;;1.37;1.27;;;;;;;19.63;86.44;97983.88;5032752;28;20234;-69
2022/06/25 07:19:52;;;;;;;3.03;1.40;;;;;;;19.67;84.37;97986.53;5032806;28;20222;-68
2022/06/25 07:22:19;;;;;;;3.47;1.17;;;;;;;19.71;79.16;97986.78;5032867;28;20217;-69
2022/06/25 07:24:45;;;;;;;1.40;1.30;;;;;;;19.62;82.95;97991.16;5032863;28;20264;-69
2022/06/25 07:27:12;;;;;;;2.40;1.40;;;;;;;19.85;78.95;97989.69;5032613;28;20208;-69
2022/06/25 07:29:38;;;;;;;1.87;1.20;;;;;;;19.98;80.72;97989.84;5032659;28;20309;-69
2022/06/25 07:32:05;;;;;;;1.70;1.40;;;;;;;20.07;79.00;97988.16;5033032;28;20571;-69
2022/06/25 07:34:32;;;;;;;1.20;1.10;;;;;;;20.34;80.99;97985.81;5036235;28;20202;-68
2022/06/25 07:36:58;;;;;;;1.20;1.10;;;;;;;20.27;79.29;97987.25;5036108;28;20210;-69
2022/06/25 07:39:25;;;;;;;1.53;1.33;;;;;;;20.17;80.65;97979.22;5035969;28;20222;-69
2022/06/25 07:41:51;;;;;;;2.43;1.40;;;;;;;19.97;75.19;97984.72;5036178;28;20301;-69
2022/06/25 07:44:18;;;;;;;1.80;1.50;;;;;;;19.89;81.09;97982.66;5035742;28;20260;-69
2022/06/25 07:46:44;;;;;;;1.97;1.40;;;;;;;19.87;75.64;97988.31;5035974;28;20210;-69
2022/06/25 07:49:10;;;;;;;4.00;1.60;;;;;;;19.83;76.36;97979.16;5035820;28;20229;-69
2022/06/25 07:54:21;;;;;;;2.60;1.30;;;;;;;20.14;77.38;97974.38;5036064;28;20181;-69
2022/06/25 07:56:47;;;;;;;3.23;1.67;;;;;;;20.22;76.11;97973.78;5035621;28;20210;-69
2022/06/25 07:59:14;;;;;;;2.37;1.40;;;;;;;20.48;76.26;97975.97;5035638;28;20305;-69
2022/06/25 08:01:40;;;;;;;2.87;1.37;;;;;;;20.62;75.75;97973.44;5035527;28;20289;-69
2022/06/25 08:04:07;;;;;;;2.53;1.60;;;;;;;20.76;76.50;97972.47;5035834;28;20212;-69
2022/06/25 08:06:34;;;;;;;2.77;1.70;;;;;;;20.58;71.82;97969.69;5035663;28;20301;-68
2022/06/25 08:09:02;;;;;;;1.80;1.30;;;;;;;20.62;72.99;97968.03;5035104;28;20740;-69
2022/06/25 08:11:28;;;;;;;4.50;1.57;;;;;;;20.64;70.79;97958.56;5035390;28;20665;-68
2022/06/25 08:13:55;;;;;;;1.43;1.33;;;;;;;21.09;73.55;97957.28;5035648;28;20210;-69
2022/06/25 08:16:22;;;;;;;1.63;1.30;;;;;;;21.20;72.20;97953.38;5035690;28;20217;-69
2022/06/25 08:18:49;;;;;;;2.07;1.70;;;;;;;21.27;72.88;97951.94;5034990;28;20221;-69
2022/06/25 08:21:15;;;;;;;1.83;1.40;;;;;;;21.49;72.72;97951.38;5035401;28;20305;-69
2022/06/25 08:23:41;;;;;;;1.50;1.40;;;;;;;21.52;70.07;97959.69;5035122;28;20213;-69
2022/06/25 08:26:08;;;;;;;3.65;1.60;;;;;;;21.82;68.24;97951.19;5035092;28;20210;-69
2022/06/25 08:28:34;;;;;;;2.93;1.60;;;;;;;21.84;71.27;97953.63;5035093;28;20257;-69
2022/06/25 08:31:01;;;;;;;2.15;1.63;;;;;;;21.80;69.64;97949.88;5035261;28;20202;-69
2022/06/25 08:33:27;;;;;;;2.03;1.50;;;;;;;21.61;69.36;97966.06;5035313;28;20293;-69
2022/06/25 08:35:53;;;;;;;1.30;1.20;;;;;;;21.69;65.93;97956.47;5035017;28;20206;-69
2022/06/25 08:38:20;;;;;;;1.52;1.33;;;;;;;21.84;64.63;97957.09;5034657;28;20720;-69
2022/06/25 08:40:46;;;;;;;3.83;1.45;;;;;;;21.72;67.34;97947.81;5035082;28;20296;-69
2022/06/25 08:43:13;;;;;;;2.38;1.60;;;;;;;21.63;67.99;97954.97;5034683;28;20202;-69
2022/06/25 08:45:40;;;;;;;2.55;1.58;;;;;;;21.96;66.01;97956.66;5034843;28;20225;-69
2022/06/25 08:48:17;;;;;;;2.80;1.50;;;;;;;21.75;63.96;97947.25;5034465;28;20649;-69
2022/06/25 08:50:45;;;;;;;2.88;1.60;;;;;;;21.53;67.65;97955.09;5034787;28;20220;-69
2022/06/25 08:53:13;;;;;;;2.17;1.45;;;;;;;21.47;65.70;97953.56;5034540;28;20287;-69
2022/06/25 08:55:39;;;;;;;2.35;1.90;;;;;;;21.64;64.94;97945.72;5034593;28;20241;-68
2022/06/25 08:58:09;;;;;;;1.55;1.45;;;;;;;22.16;63.78;97949.03;5034451;28;20607;-68
2022/06/25 09:00:37;;;;;;;2.38;1.50;;;;;;;22.03;61.61;97940.88;5034179;28;20677;-69
2022/06/25 09:03:05;;;;;;;2.08;1.30;;;;;;;21.80;64.38;97936.34;5034467;28;20202;-68
2022/06/25 09:05:40;;;;;;;1.50;1.40;;;;;;;22.08;64.22;97938.88;5034340;28;20244;-68
2022/06/25 09:08:10;;;;;;;4.80;1.50;;;;;;;22.37;66.12;97933.25;5034128;28;20241;-69
2022/06/25 09:10:38;;;;;;;2.33;1.50;;;;;;;22.37;63.41;97927.81;5034170;28;20300;-69
2022/06/25 09:13:08;;;;;;;3.38;1.38;;;;;;;22.39;62.31;97928.34;5034382;28;20213;-69
2022/06/25 09:15:39;;;;;;;2.50;1.50;;;;;;;22.42;62.83;97925.84;5034240;28;20233;-68
2022/06/25 09:18:11;;;;;;;3.05;1.73;;;;;;;22.40;60.39;97927.22;5034055;28;20252;-68
2022/06/25 09:21:08;;;;;;;4.57;4.13;;;;;;;22.40;59.85;97927.22;5033888;28;20703;-69
2022/06/25 09:23:58;;;;;;;1.65;1.55;;;;;;;22.46;61.50;97926.06;5028235;28;20669;-68
2022/06/25 09:26:25;;;;;;;1.85;1.42;;;;;;;22.75;62.10;97922.00;5033846;28;20680;-69
2022/06/25 09:28:51;;;;;;;3.10;1.55;;;;;;;22.64;58.43;97925.19;5033547;28;20233;-69
2022/06/25 09:31:35;;;;;;;2.47;1.35;;;;;;;22.83;58.86;97918.59;5033729;28;20673;-68
2022/06/25 09:34:07;;;;;;;1.63;1.30;;;;;;;22.99;60.61;97929.94;5033830;28;20194;-69
2022/06/25 09:36:33;;;;;;;1.52;1.42;;;;;;;23.12;59.19;97915.59;5033661;28;20563;-68
2022/06/25 09:39:00;;;;;;;1.40;1.30;;;;;;;23.22;59.28;97916.22;5033645;28;20217;-68
2022/06/25 09:41:26;;;;;;;2.08;1.50;;;;;;;23.17;57.96;97913.59;5033823;28;20206;-69
2022/06/25 09:43:53;;;;;;;1.73;1.25;;;;;;;23.35;60.11;97904.56;5033288;28;20206;-68
2022/06/25 09:46:19;;;;;;;1.27;1.17;;;;;;;22.91;57.36;97919.81;5033316;28;20306;-68
2022/06/25 09:48:46;;;;;;;1.88;1.52;;;;;;;23.39;59.02;97912.88;5033426;28;20229;-69
2022/06/25 09:51:23;;;;;;;1.65;1.55;;;;;;;23.51;57.04;97915.88;5033521;28;20283;-69
2022/06/25 09:53:56;;;;;;;1.63;1.40;;;;;;;23.54;55.50;97920.69;5033805;28;20599;-69
2022/06/25 09:56:32;;;;;;;1.55;1.45;;;;;;;23.25;56.17;97917.53;5033094;28;20196;-69
2022/06/25 09:58:59;;;;;;;1.90;1.42;;;;;;;22.91;57.53;97919.81;5032767;28;20618;-69
2022/06/25 10:01:33;;;;;;;3.13;1.50;;;;;;;23.01;58.13;97906.84;5033685;28;20300;-68
2022/06/25 10:04:02;;;;;;;1.55;1.23;;;;;;;23.18;57.10;97911.66;5033265;28;20206;-69
2022/06/25 10:06:35;;;;;;;1.63;1.40;;;;;;;23.18;56.39;97911.66;5033262;28;20206;-69
2022/06/25 10:09:05;;;;;;;3.03;1.60;;;;;;;23.34;58.56;97907.56;5033172;28;20230;-69
2022/06/25 10:11:34;;;;;;;1.65;1.45;;;;;;;23.79;55.34;97909.25;5032934;28;20289;-68
2022/06/25 10:14:01;;;;;;;4.10;2.45;;;;;;;23.85;55.08;97900.69;5032891;28;20202;-68
2022/06/25 10:16:29;;;;;;;2.78;1.48;;;;;;;23.87;54.23;97898.44;5033135;28;20267;-69
2022/06/25 10:18:56;;;;;;;1.85;1.45;;;;;;;23.93;57.46;97896.47;5033332;28;20223;-69
2022/06/25 10:21:24;;;;;;;2.25;1.40;;;;;;;23.75;55.49;97902.84;5032640;28;20213;-69
2022/06/25 10:23:54;;;;;;;1.48;1.38;;;;;;;23.92;56.56;97892.16;5033061;28;20202;-69
2022/06/25 10:26:22;;;;;;;3.70;1.30;;;;;;;24.03;55.07;97897.03;5033045;28;20293;-69
2022/06/25 10:28:49;;;;;;;5.80;5.20;;;;;;;23.70;54.53;97889.38;5015422;28;20312;-68
2022/06/25 10:31:17;;;;;;;2.47;1.30;;;;;;;23.94;57.10;97892.63;5032736;28;20206;-69
2022/06/25 10:34:05;;;;;;;1.83;1.40;;;;;;;23.58;55.28;97887.22;5033737;28;20292;-69
2022/06/25 10:36:52;;;;;;;3.00;1.90;;;;;;;23.53;57.39;97884.63;5033112;28;20210;-68
2022/06/25 10:39:27;;;;;;;5.00;1.33;;;;;;;23.83;55.21;97889.31;5032909;28;20232;-69
2022/06/25 10:45:16;;;;;;;2.40;1.80;;;;;;;24.36;52.72;97882.03;5032790;28;20644;-69
2022/06/25 10:47:48;;;;;;;2.05;1.60;;;;;;;24.34;53.01;97875.31;5002410;28;20643;-69
2022/06/25 10:50:25;;;;;;;2.17;1.63;;;;;;;24.33;53.42;97876.44;5032694;28;20228;-68
2022/06/25 10:53:03;;;;;;;2.42;2.20;;;;;;;24.51;51.00;97873.47;5033016;28;20292;-69
2022/06/25 10:55:30;;;;;;;3.20;1.63;;;;;;;24.56;51.89;97867.13;5032920;28;20297;-69
2022/06/25 10:58:13;;;;;;;4.80;2.60;;;;;;;24.56;52.83;97867.13;5032595;28;20226;-69
2022/06/25 11:00:58;;;;;;;2.88;1.70;;;;;;;24.49;51.69;97867.56;5032967;28;20305;-69
2022/06/25 11:03:28;;;;;;;2.55;1.77;;;;;;;24.79;53.42;97861.31;5032246;28;20248;-68
2022/06/25 11:05:56;;;;;;;3.85;1.60;;;;;;;24.83;48.02;97856.84;5032796;28;20206;-69
2022/06/25 11:08:23;;;;;;;2.72;1.67;;;;;;;24.59;48.50;97851.00;5036199;28;20689;-69
2022/06/25 11:10:49;;;;;;;2.08;1.42;;;;;;;24.28;50.36;97857.56;5019103;28;20208;-69
2022/06/25 11:13:16;;;;;;;1.55;1.40;;;;;;;24.52;50.47;97856.06;5036302;28;20549;-68
2022/06/25 11:15:45;;;;;;;2.08;1.73;;;;;;;24.74;51.29;97853.28;5036329;28;20202;-69
2022/06/25 11:18:13;;;;;;;1.45;1.35;;;;;;;24.63;49.97;97860.16;5036705;28;20310;-69
2022/06/25 11:20:41;;;;;;;2.78;2.55;;;;;;;24.71;49.52;97858.56;5036500;28;20307;-69
2022/06/25 11:23:12;;;;;;;4.15;3.30;;;;;;;24.45;49.69;97854.91;5036160;28;20846;-70
2022/06/25 11:28:52;;;;;;;2.50;2.30;;;;;;;24.56;51.17;97856.25;5036036;28;20303;-69
2022/06/25 11:31:24;;;;;;;2.13;1.55;;;;;;;24.36;50.89;97851.34;5035797;28;20540;-69
2022/06/25 11:33:54;;;;;;;2.13;1.60;;;;;;;23.85;50.94;97848.28;5036152;28;20237;-69
2022/06/25 11:36:21;;;;;;;2.10;1.83;;;;;;;23.75;50.73;97849.31;5036614;28;20273;-69
2022/06/25 11:38:52;;;;;;;2.15;1.67;;;;;;;24.07;52.53;97848.31;5035931;28;20323;-68
2022/06/25 11:41:30;;;;;;;3.47;1.60;;;;;;;24.50;50.89;97849.31;5036002;28;20293;-69
2022/06/25 11:44:05;;;;;;;1.88;1.65;;;;;;;24.66;50.23;97845.94;5035502;28;20696;-69
2022/06/25 11:46:35;;;;;;;2.80;1.70;;;;;;;24.78;49.92;97843.41;5036077;28;20194;-69
2022/06/25 11:49:05;;;;;;;2.95;1.70;;;;;;;24.18;49.96;97838.78;5017616;28;20659;-69
2022/06/25 11:51:32;;;;;;;1.90;1.50;;;;;;;23.88;51.63;97845.75;5035381;28;20194;-69
2022/06/25 11:54:06;;;;;;;2.22;1.65;;;;;;;23.86;51.67;97831.69;5035823;28;20205;-69